Time;durP1;ratioP1;P1;durP2;ratioP2;P2;SDS_P1;SDS_P2;PMS_P1;PMS_P2;Temp;Humidity;BMP_temperature;BMP_pressure;BME280_temperature;BME280_humidity;BME280_pressure;Samples;Min_cycle;Max_cycle;Signal;HPM_P1;HPM_P2
2024/02/07 00:00:48;;;;;;;1.80;1.20;;;24.20;57.40;;;;;;5014888;28;20533;-87
2024/02/07 00:03:15;;;;;;;2.00;1.30;;;24.20;57.40;;;;;;5014876;28;20541;-87
2024/02/07 00:05:43;;;;;;;1.80;1.30;;;24.20;57.40;;;;;;5034549;28;20438;-88
2024/02/07 00:08:10;;;;;;;3.20;1.50;;;24.10;57.30;;;;;;5024488;28;20477;-88
2024/02/07 00:10:37;;;;;;;3.30;1.23;;;24.10;57.30;;;;;;5034638;28;20543;-87
2024/02/07 00:13:04;;;;;;;2.07;1.20;;;24.10;57.30;;;;;;5016981;28;20518;-87
2024/02/07 00:15:31;;;;;;;2.00;1.27;;;24.10;57.30;;;;;;5014773;28;20522;-87
2024/02/07 00:17:58;;;;;;;1.83;1.07;;;24.10;57.30;;;;;;5014881;28;20926;-87
2024/02/07 00:20:25;;;;;;;2.10;1.00;;;24.10;57.40;;;;;;5029706;28;20446;-87
2024/02/07 00:22:53;;;;;;;3.50;1.60;;;24.10;57.40;;;;;;5033796;28;20434;-87
2024/02/07 00:25:20;;;;;;;2.47;1.10;;;24.10;57.40;;;;;;5034269;28;20434;-86
2024/02/07 00:27:47;;;;;;;4.33;1.40;;;24.10;57.40;;;;;;5034130;28;20533;-86
2024/02/07 00:30:14;;;;;;;2.30;1.47;;;24.10;57.40;;;;;;5034245;28;20516;-86
2024/02/07 00:32:41;;;;;;;2.50;1.00;;;24.10;57.40;;;;;;5033803;28;20438;-86
2024/02/07 00:35:08;;;;;;;1.90;1.30;;;24.10;57.40;;;;;;5034102;28;20482;-87
2024/02/07 00:37:35;;;;;;;1.87;1.20;;;24.00;57.30;;;;;;5026009;28;20446;-87
2024/02/07 00:40:05;;;;;;;2.20;1.33;;;24.10;57.40;;;;;;5024403;28;20542;-87
2024/02/07 00:42:32;;;;;;;1.90;1.20;;;24.00;57.40;;;;;;5030992;28;20464;-87
2024/02/07 00:44:59;;;;;;;2.10;1.20;;;24.00;57.40;;;;;;5029789;28;20569;-87
2024/02/07 00:47:25;;;;;;;1.70;1.10;;;24.00;57.40;;;;;;5030444;28;20514;-87
2024/02/07 00:49:52;;;;;;;1.80;0.97;;;24.00;57.40;;;;;;5042169;28;20463;-86
2024/02/07 00:52:21;;;;;;;4.10;1.40;;;24.00;57.40;;;;;;5041886;28;20442;-87
2024/02/07 00:54:47;;;;;;;2.10;1.47;;;24.00;57.90;;;;;;5018207;28;20534;-86
2024/02/07 00:57:16;;;;;;;1.80;1.40;;;24.00;57.40;;;;;;5018020;28;20493;-88
2024/02/07 00:59:42;;;;;;;2.33;1.30;;;24.00;57.40;;;;;;5017969;28;20486;-88
2024/02/07 01:02:09;;;;;;;1.77;1.10;;;24.00;57.50;;;;;;5027468;28;20796;-88
2024/02/07 01:04:36;;;;;;;1.70;1.17;;;24.00;57.50;;;;;;5037379;28;20474;-92
2024/02/07 01:07:03;;;;;;;2.37;1.20;;;23.90;57.40;;;;;;5037407;28;20537;-88
2024/02/07 01:09:30;;;;;;;1.70;1.10;;;24.00;57.50;;;;;;5037064;28;20541;-88
2024/02/07 01:11:57;;;;;;;2.80;1.13;;;24.00;57.50;;;;;;5037094;28;20476;-88
2024/02/07 01:14:26;;;;;;;1.60;1.00;;;24.00;57.50;;;;;;5037325;28;20494;-88
2024/02/07 01:16:53;;;;;;;1.60;1.00;;;24.00;57.50;;;;;;5037052;28;20442;-86
2024/02/07 01:19:21;;;;;;;1.77;1.20;;;23.90;57.50;;;;;;5037014;28;20450;-86
2024/02/07 01:21:47;;;;;;;1.70;1.00;;;23.90;57.50;;;;;;5037134;28;20438;-87
2024/02/07 01:24:15;;;;;;;2.00;1.20;;;23.90;57.50;;;;;;5037219;28;20521;-87
2024/02/07 01:26:44;;;;;;;3.00;1.43;;;23.90;57.50;;;;;;5036928;28;20508;-86
2024/02/07 01:29:09;;;;;;;2.43;1.13;;;23.90;57.50;;;;;;5037346;28;20452;-86
2024/02/07 01:31:38;;;;;;;1.70;1.20;;;23.90;57.50;;;;;;5036948;28;21063;-88
2024/02/07 01:34:04;;;;;;;1.93;1.20;;;23.80;57.50;;;;;;5037094;28;20233;-88
2024/02/07 01:36:31;;;;;;;1.50;1.00;;;23.90;57.60;;;;;;5038182;28;20790;-87
2024/02/07 01:38:59;;;;;;;2.40;1.20;;;23.80;57.50;;;;;;5040796;28;20482;-88
2024/02/07 01:41:26;;;;;;;2.33;1.40;;;23.80;57.50;;;;;;5039483;28;20469;-86
2024/02/07 01:43:53;;;;;;;1.90;1.40;;;23.80;57.50;;;;;;5038005;28;20481;-88
2024/02/07 01:46:19;;;;;;;1.93;1.03;;;23.80;57.50;;;;;;5034294;28;20525;-88
2024/02/07 01:48:49;;;;;;;2.40;1.23;;;23.80;57.60;;;;;;5017391;28;20529;-88
2024/02/07 01:51:17;;;;;;;2.20;1.10;;;23.80;57.50;;;;;;5015995;28;20486;-88
2024/02/07 01:53:44;;;;;;;2.27;1.20;;;23.80;57.60;;;;;;5016874;28;20458;-88
2024/02/07 01:56:11;;;;;;;2.00;1.00;;;23.80;57.60;;;;;;5017224;28;20977;-89
2024/02/07 01:58:38;;;;;;;2.03;1.10;;;23.80;57.60;;;;;;5016832;28;20479;-88
2024/02/07 02:01:06;;;;;;;1.97;1.20;;;23.80;57.70;;;;;;5016702;28;20533;-87
2024/02/07 02:03:34;;;;;;;2.20;1.30;;;23.80;57.70;;;;;;5017147;28;20438;-89
2024/02/07 02:06:02;;;;;;;1.70;1.10;;;23.80;57.70;;;;;;5016716;28;20497;-88
2024/02/07 02:08:29;;;;;;;1.70;1.07;;;23.80;57.70;;;;;;5016866;28;20450;-88
2024/02/07 02:11:02;;;;;;;1.90;1.10;;;23.80;57.70;;;;;;5016410;28;20589;-88
2024/02/07 02:13:30;;;;;;;1.80;1.07;;;23.80;57.70;;;;;;5017237;28;20988;-88
2024/02/07 02:15:57;;;;;;;1.90;1.00;;;23.80;57.60;;;;;;5016618;28;20530;-88
2024/02/07 02:18:24;;;;;;;1.80;1.03;;;23.80;57.60;;;;;;5016763;28;20538;-87
2024/02/07 02:20:51;;;;;;;1.90;1.20;;;23.80;57.60;;;;;;5016687;28;20439;-90
2024/02/07 02:23:58;;;;;;;2.13;1.10;;;23.90;57.60;;;;;;5016468;28;20451;-86
2024/02/07 02:26:53;;;;;;;1.70;1.00;;;23.90;57.60;;;;;;4999292;28;20775;-88
2024/02/07 02:29:32;;;;;;;2.00;1.33;;;23.90;57.60;;;;;;5016957;28;20447;-88
2024/02/07 02:31:59;;;;;;;1.90;1.10;;;23.80;57.50;;;;;;5016123;28;20494;-88
2024/02/07 02:34:28;;;;;;;3.83;1.17;;;23.90;57.50;;;;;;5016426;28;20506;-88
2024/02/07 02:36:55;;;;;;;1.67;0.90;;;23.80;57.50;;;;;;5016595;28;20443;-88
2024/02/07 02:39:28;;;;;;;1.40;0.80;;;23.80;57.50;;;;;;5015938;28;20954;-88
2024/02/07 02:41:55;;;;;;;1.40;0.80;;;23.90;57.50;;;;;;5015810;28;20451;-89
2024/02/07 02:44:25;;;;;;;1.50;0.97;;;23.90;57.50;;;;;;5015779;28;20533;-88
2024/02/07 02:46:54;;;;;;;1.70;1.00;;;23.90;57.40;;;;;;5016445;28;20525;-88
2024/02/07 02:49:20;;;;;;;2.37;1.23;;;23.90;57.50;;;;;;5015969;28;20554;-88
2024/02/07 02:51:48;;;;;;;1.90;1.10;;;24.00;57.50;;;;;;5015857;28;20593;-88
2024/02/07 02:54:15;;;;;;;1.60;0.90;;;23.90;57.40;;;;;;5015781;28;20513;-88
2024/02/07 02:56:42;;;;;;;2.23;1.00;;;23.90;57.40;;;;;;5015598;28;20439;-88
2024/02/07 02:59:10;;;;;;;1.80;1.00;;;23.90;57.40;;;;;;5015471;28;20542;-88
2024/02/07 03:01:39;;;;;;;1.90;1.10;;;23.90;57.40;;;;;;5015335;28;20451;-88
2024/02/07 03:04:06;;;;;;;1.50;0.90;;;23.90;57.30;;;;;;5015804;28;20478;-88
2024/02/07 03:06:50;;;;;;;3.30;1.00;;;23.90;57.40;;;;;;5015423;28;20447;-88
2024/02/07 03:09:20;;;;;;;1.80;0.97;;;23.90;57.30;;;;;;5015688;28;20486;-88
2024/02/07 03:11:48;;;;;;;2.10;1.00;;;23.90;57.30;;;;;;5015621;28;20486;-88
2024/02/07 03:14:15;;;;;;;1.73;1.00;;;23.90;57.20;;;;;;5015569;28;20473;-88
2024/02/07 03:16:44;;;;;;;1.90;1.00;;;23.90;57.20;;;;;;5015521;28;20479;-88
2024/02/07 03:19:12;;;;;;;2.00;1.07;;;23.90;57.20;;;;;;5015124;28;20620;-88
2024/02/07 03:21:39;;;;;;;1.50;0.90;;;23.90;57.20;;;;;;5015262;28;20443;-88
2024/02/07 03:24:09;;;;;;;1.60;1.10;;;23.90;57.20;;;;;;5015711;28;20792;-88
2024/02/07 03:26:35;;;;;;;1.40;0.70;;;23.90;57.20;;;;;;5015964;28;20447;-88
2024/02/07 03:29:02;;;;;;;2.30;1.07;;;23.90;57.10;;;;;;5015639;28;20534;-87
2024/02/07 03:31:31;;;;;;;1.50;0.90;;;23.90;57.10;;;;;;5014826;28;20497;-87
2024/02/07 03:33:59;;;;;;;1.97;1.00;;;23.90;57.10;;;;;;5014998;28;20645;-87
2024/02/07 03:36:28;;;;;;;1.50;0.83;;;23.80;57.10;;;;;;5015093;28;20530;-88
2024/02/07 03:38:56;;;;;;;1.70;1.00;;;23.80;57.70;;;;;;5015001;28;20934;-87
2024/02/07 03:41:23;;;;;;;1.60;1.00;;;23.80;57.00;;;;;;5015695;28;20523;-88
2024/02/07 03:43:50;;;;;;;1.57;0.97;;;23.90;57.10;;;;;;5015220;28;20565;-87
2024/02/07 03:46:17;;;;;;;1.83;0.90;;;23.90;57.00;;;;;;5015441;28;20530;-87
2024/02/07 03:48:45;;;;;;;1.70;1.00;;;23.90;57.60;;;;;;5015953;28;20427;-88
2024/02/07 03:51:15;;;;;;;2.17;1.20;;;23.90;57.00;;;;;;5016122;28;20494;-88
2024/02/07 03:53:43;;;;;;;1.60;0.90;;;23.90;57.00;;;;;;5016360;28;20509;-88
2024/02/07 03:56:11;;;;;;;1.60;0.80;;;23.80;56.90;;;;;;5015117;28;20439;-88
2024/02/07 03:58:38;;;;;;;1.80;0.90;;;23.90;56.90;;;;;;5015017;28;20807;-88
2024/02/07 04:01:05;;;;;;;1.60;0.90;;;23.90;57.00;;;;;;5015008;28;20451;-88
2024/02/07 04:03:32;;;;;;;1.63;1.00;;;23.90;56.90;;;;;;5030117;28;20435;-88
2024/02/07 04:06:00;;;;;;;2.10;0.93;;;23.90;56.80;;;;;;5038599;28;20439;-88
2024/02/07 04:08:28;;;;;;;1.80;0.87;;;23.90;56.80;;;;;;5027985;28;20435;-88
2024/02/07 04:10:56;;;;;;;1.77;0.90;;;23.90;56.90;;;;;;5014636;28;20914;-88
2024/02/07 05:16:12;;;;;;;1.40;0.77;;;23.90;56.50;;;;;;5014059;28;20422;-88
2024/02/07 05:18:39;;;;;;;1.90;1.00;;;23.90;56.40;;;;;;5013766;28;20446;-88
2024/02/07 05:21:07;;;;;;;2.43;0.80;;;23.90;56.40;;;;;;5013854;28;20550;-87
2024/02/07 05:23:34;;;;;;;1.80;0.80;;;23.90;56.30;;;;;;5013907;28;20501;-87
2024/02/07 05:26:02;;;;;;;1.70;1.00;;;23.90;56.90;;;;;;5014122;28;20479;-89
2024/02/07 05:28:30;;;;;;;1.50;0.87;;;24.00;56.40;;;;;;5017846;28;20527;-87
2024/02/07 05:30:57;;;;;;;1.60;1.10;;;24.00;56.40;;;;;;5017551;28;20562;-88
2024/02/07 05:33:24;;;;;;;1.50;0.70;;;24.00;56.30;;;;;;5017519;28;20518;-89
2024/02/07 05:35:52;;;;;;;1.47;0.87;;;24.00;56.90;;;;;;5017607;28;20454;-88
2024/02/07 05:38:19;;;;;;;1.87;0.97;;;24.00;56.20;;;;;;5017629;28;20925;-86
2024/02/07 05:40:45;;;;;;;1.53;0.90;;;24.00;56.20;;;;;;5020085;28;20522;-88
2024/02/07 05:43:12;;;;;;;1.50;0.83;;;24.00;56.20;;;;;;5019544;28;20552;-88
2024/02/07 05:45:41;;;;;;;1.50;0.80;;;24.00;56.10;;;;;;5019015;28;20561;-88
2024/02/07 05:48:08;;;;;;;1.40;0.80;;;24.00;56.10;;;;;;5018549;28;20447;-91
2024/02/07 05:50:35;;;;;;;1.83;1.00;;;24.00;56.20;;;;;;5018257;28;20443;-87
2024/02/07 05:53:02;;;;;;;1.70;0.80;;;24.00;56.10;;;;;;5018652;28;20482;-88
2024/02/07 05:55:30;;;;;;;1.40;0.70;;;24.00;56.10;;;;;;5018100;28;20457;-87
2024/02/07 05:57:57;;;;;;;1.30;0.70;;;24.00;56.10;;;;;;5017413;28;20443;-87
2024/02/07 06:00:24;;;;;;;1.80;0.90;;;24.00;56.10;;;;;;5017307;28;20531;-87
2024/02/07 06:02:54;;;;;;;1.60;0.93;;;24.00;56.20;;;;;;5017905;28;20530;-91
2024/02/07 06:05:22;;;;;;;1.50;0.80;;;24.00;56.20;;;;;;5033335;28;20435;-90
2024/02/07 06:07:48;;;;;;;1.50;0.80;;;24.00;56.10;;;;;;5039905;28;20447;-91
2024/02/07 06:10:19;;;;;;;2.00;0.90;;;24.00;56.10;;;;;;5036787;28;20427;-88
2024/02/07 06:12:46;;;;;;;2.57;0.93;;;24.00;56.10;;;;;;5021904;28;20490;-87
2024/02/07 06:15:13;;;;;;;1.60;0.90;;;24.00;56.10;;;;;;5016737;28;20534;-87
2024/02/07 06:17:41;;;;;;;1.97;0.80;;;24.00;56.00;;;;;;5016515;28;20447;-90
2024/02/07 06:20:11;;;;;;;1.37;0.70;;;24.00;55.90;;;;;;5016969;28;20481;-86
2024/02/07 06:22:39;;;;;;;2.60;1.53;;;24.00;55.90;;;;;;5016428;28;20431;-87
2024/02/07 06:25:07;;;;;;;1.63;0.90;;;24.00;55.90;;;;;;5016574;28;20501;-87
2024/02/07 06:27:33;;;;;;;1.50;0.80;;;24.00;55.90;;;;;;5016607;28;20514;-87
2024/02/07 06:30:00;;;;;;;1.60;0.90;;;24.00;55.90;;;;;;5016698;28;20447;-87
2024/02/07 06:32:27;;;;;;;1.60;0.80;;;24.00;55.90;;;;;;5016882;28;21008;-88
2024/02/07 06:34:54;;;;;;;1.50;0.80;;;24.00;55.90;;;;;;5016307;28;20479;-88
2024/02/07 06:37:25;;;;;;;1.50;0.90;;;24.00;55.90;;;;;;5015912;28;20481;-87
2024/02/07 06:39:52;;;;;;;1.60;0.80;;;24.00;55.80;;;;;;5016379;28;20451;-87
2024/02/07 06:42:19;;;;;;;1.70;0.90;;;24.10;55.90;;;;;;5019446;28;20886;-87
2024/02/07 06:44:45;;;;;;;1.57;0.90;;;24.10;55.90;;;;;;5035499;28;20473;-87
2024/02/07 06:47:12;;;;;;;2.47;1.00;;;24.00;55.80;;;;;;5035546;28;20439;-87
2024/02/07 06:49:40;;;;;;;1.50;0.80;;;24.10;55.80;;;;;;5035481;28;20443;-91
2024/02/07 06:52:07;;;;;;;1.53;0.83;;;24.10;55.80;;;;;;5035796;28;20828;-89
2024/02/07 06:54:35;;;;;;;1.40;0.70;;;24.10;55.80;;;;;;5035941;28;20478;-89
2024/02/07 06:57:02;;;;;;;1.47;0.70;;;24.10;55.80;;;;;;5035688;28;20451;-88
2024/02/07 06:59:29;;;;;;;1.50;0.90;;;24.10;55.80;;;;;;5034892;28;20538;-95
2024/02/07 07:01:56;;;;;;;1.50;0.90;;;24.10;55.80;;;;;;5033329;28;20440;-88
2024/02/07 07:04:23;;;;;;;2.07;0.80;;;24.10;55.70;;;;;;5035658;28;20509;-89
2024/02/07 07:06:50;;;;;;;1.80;0.80;;;24.10;55.70;;;;;;5033187;28;20525;-93
2024/02/07 07:09:18;;;;;;;1.57;0.90;;;24.10;55.70;;;;;;5033728;28;20439;-89
2024/02/07 07:11:46;;;;;;;1.70;0.77;;;24.10;55.70;;;;;;5033131;28;20517;-89
2024/02/07 07:14:13;;;;;;;3.00;0.90;;;24.10;55.70;;;;;;5033575;28;20506;-89
2024/02/07 07:16:40;;;;;;;3.70;0.90;;;24.20;55.70;;;;;;5034063;28;20434;-89
2024/02/07 07:19:07;;;;;;;1.40;0.77;;;24.10;55.70;;;;;;5035298;28;20949;-89
2024/02/07 07:21:34;;;;;;;1.60;0.83;;;24.20;55.70;;;;;;5052669;28;20426;-89
2024/02/07 07:24:00;;;;;;;2.80;1.00;;;24.20;55.80;;;;;;5059085;28;20438;-88
2024/02/07 07:26:27;;;;;;;1.93;1.10;;;24.10;55.70;;;;;;5049316;28;20470;-89
2024/02/07 07:28:57;;;;;;;1.83;1.13;;;24.10;55.70;;;;;;5034736;28;20937;-89
2024/02/07 07:31:23;;;;;;;1.60;1.10;;;24.10;56.30;;;;;;5036944;28;20447;-89
2024/02/07 07:33:50;;;;;;;2.27;1.30;;;24.10;55.70;;;;;;5036668;28;20946;-89
2024/02/07 07:36:17;;;;;;;2.73;1.20;;;24.10;55.70;;;;;;5035095;28;20475;-89
2024/02/07 07:38:44;;;;;;;1.80;1.30;;;24.10;55.70;;;;;;5034546;28;20445;-92
2024/02/07 07:41:12;;;;;;;8.33;1.50;;;24.10;55.50;;;;;;5035137;28;20449;-89
2024/02/07 07:43:38;;;;;;;4.80;1.37;;;24.10;54.70;;;;;;5039118;28;20529;-82
2024/02/07 07:46:08;;;;;;;1.70;1.10;;;24.10;55.40;;;;;;5035750;28;20430;-89
2024/02/07 07:48:35;;;;;;;2.50;1.20;;;24.20;55.30;;;;;;5036764;28;20453;-84
2024/02/07 07:51:02;;;;;;;2.73;1.23;;;24.20;55.50;;;;;;5039108;28;20430;-85
2024/02/07 07:53:29;;;;;;;3.70;1.50;;;24.10;55.20;;;;;;5035759;28;20492;-84
2024/02/07 07:55:56;;;;;;;5.80;2.20;;;24.10;55.10;;;;;;5034403;28;20766;-83
2024/02/07 07:58:23;;;;;;;6.60;1.53;;;24.00;55.20;;;;;;5044512;28;20505;-90
2024/02/07 08:01:21;;;;;;;9.47;1.87;;;24.00;55.60;;;;;;5044411;28;20522;-91
2024/02/07 08:09:59;;;;;;;5.97;1.40;;;24.10;56.00;;;;;;4953874;23;20863;-92
2024/02/07 08:12:26;;;;;;;6.20;2.20;;;24.10;56.60;;;;;;5022319;28;20494;-92
2024/02/07 08:14:57;;;;;;;4.13;1.70;;;24.10;56.00;;;;;;5023882;28;20462;-92
2024/02/07 08:17:26;;;;;;;6.50;1.77;;;24.10;56.00;;;;;;5021249;28;20538;-92
2024/02/07 08:19:56;;;;;;;5.10;1.87;;;24.10;56.00;;;;;;5021186;28;20459;-94
2024/02/07 08:22:23;;;;;;;12.47;1.70;;;24.20;56.30;;;;;;5074513;23;20478;-93
2024/02/07 08:24:55;;;;;;;4.60;1.30;;;24.20;55.80;;;;;;5109846;28;20420;-93
2024/02/07 08:27:31;;;;;;;5.53;1.43;;;24.20;55.80;;;;;;5065031;22;20488;-93
2024/02/07 08:30:02;;;;;;;5.33;1.47;;;24.20;55.80;;;;;;5042311;28;20556;-92
2024/02/07 08:32:32;;;;;;;3.50;1.60;;;24.20;55.80;;;;;;5041755;28;20510;-93
2024/02/07 08:34:58;;;;;;;8.03;1.70;;;24.20;55.80;;;;;;5025764;28;20454;-93
2024/02/07 08:37:26;;;;;;;8.23;2.10;;;24.20;55.80;;;;;;5023108;28;20447;-92
2024/02/07 08:39:55;;;;;;;3.53;1.57;;;24.20;55.90;;;;;;5040820;23;20604;-93
2024/02/07 08:42:23;;;;;;;7.07;1.67;;;24.20;56.00;;;;;;5043050;28;20442;-93
2024/02/07 08:44:57;;;;;;;7.30;1.87;;;24.20;56.10;;;;;;5024032;28;20475;-92
2024/02/07 08:47:26;;;;;;;7.07;1.87;;;24.20;56.30;;;;;;5023801;28;20886;-92
2024/02/07 08:50:03;;;;;;;5.10;1.70;;;24.20;56.40;;;;;;5022842;28;20502;-92
2024/02/07 08:52:30;;;;;;;6.87;1.80;;;24.20;56.50;;;;;;5039177;23;20492;-90
2024/02/07 08:55:00;;;;;;;4.20;1.80;;;24.20;56.60;;;;;;5038015;28;20476;-89
2024/02/07 08:57:28;;;;;;;5.93;2.50;;;24.20;57.00;;;;;;5040457;28;20438;-90
2024/02/07 08:59:54;;;;;;;4.40;2.03;;;24.30;56.90;;;;;;5040933;28;20437;-85
2024/02/07 09:02:21;;;;;;;2.70;1.47;;;24.30;57.00;;;;;;5044093;28;20925;-86
2024/02/07 09:04:48;;;;;;;5.80;1.80;;;24.30;56.70;;;;;;5049181;28;20473;-90
2024/02/07 09:07:17;;;;;;;3.50;1.63;;;24.30;56.90;;;;;;5050894;28;20422;-90
2024/02/07 09:09:44;;;;;;;4.30;1.60;;;24.40;57.10;;;;;;5040396;28;20529;-82
2024/02/07 09:12:11;;;;;;;2.70;1.20;;;24.30;56.00;;;;;;5038756;28;20484;-83
2024/02/07 09:14:38;;;;;;;2.67;1.33;;;24.20;56.00;;;;;;5039509;28;20468;-81
2024/02/07 09:17:08;;;;;;;4.10;1.27;;;24.20;56.10;;;;;;5040442;28;20440;-82
2024/02/07 09:19:34;;;;;;;3.80;1.10;;;24.20;55.40;;;;;;5039716;28;20517;-82
2024/02/07 09:22:01;;;;;;;2.93;1.53;;;24.20;55.50;;;;;;5041698;28;20984;-89
2024/02/07 09:24:34;;;;;;;3.40;1.33;;;24.10;55.40;;;;;;5040910;28;20443;-90
2024/02/07 09:29:42;;;;;;;2.80;1.47;;;24.20;56.10;;;;;;5000377;28;20420;-80
2024/02/07 09:32:10;;;;;;;2.37;1.40;;;24.20;56.30;;;;;;5000490;28;20505;-90
2024/02/07 15:29:42;;;;;;;9.83;6.10;;;24.50;56.30;;;;;;5031909;28;21724;-85
2024/02/07 15:32:09;;;;;;;8.30;4.00;;;24.50;56.30;;;;;;5032913;28;20492;-87
2024/02/07 17:55:45;;;;;;;6.27;3.70;;;24.40;55.70;;;;;;5054038;28;20444;-82
2024/02/07 17:58:13;;;;;;;5.40;2.90;;;24.40;55.80;;;;;;5056184;28;20795;-87
2024/02/07 18:00:40;;;;;;;4.43;3.53;;;24.40;55.50;;;;;;5056812;28;20202;-86
2024/02/07 18:03:07;;;;;;;8.47;3.90;;;24.40;55.70;;;;;;5056340;28;20978;-88
2024/02/07 18:05:33;;;;;;;15.20;3.80;;;24.40;56.20;;;;;;5056734;28;20879;-85
2024/02/07 18:08:00;;;;;;;8.23;3.93;;;24.40;55.50;;;;;;5021893;28;20499;-91
2024/02/07 18:10:28;;;;;;;5.10;3.40;;;24.50;55.50;;;;;;5056898;28;20441;-87
2024/02/07 18:12:57;;;;;;;5.97;3.90;;;24.50;55.60;;;;;;5057707;28;20881;-89
2024/02/07 18:15:24;;;;;;;5.30;3.70;;;24.50;55.50;;;;;;5056853;28;20541;-88
2024/02/07 18:17:52;;;;;;;4.80;3.97;;;24.50;55.50;;;;;;5056228;28;20441;-89
